createdAt,value
2023-01-27T00:01:41.583Z,3.20
2023-01-27T00:03:44.178Z,2.20
2023-01-27T00:05:47.563Z,3.55
2023-01-27T00:07:50.453Z,3.00
2023-01-27T00:09:52.970Z,3.20
2023-01-27T00:12:14.073Z,2.92
2023-01-27T00:14:16.681Z,3.15
2023-01-27T00:16:19.381Z,3.05
2023-01-27T00:18:23.580Z,3.22
2023-01-27T00:20:45.436Z,2.72
2023-01-27T00:23:06.820Z,3.85
2023-01-27T00:25:09.572Z,2.47
2023-01-27T00:27:12.955Z,3.65
2023-01-27T00:29:15.566Z,3.05
2023-01-27T00:31:37.461Z,3.28
2023-01-27T00:33:40.086Z,2.65
2023-01-27T00:35:42.666Z,3.47
2023-01-27T00:37:46.635Z,3.08
2023-01-27T00:39:49.171Z,2.40
2023-01-27T00:41:51.863Z,3.15
2023-01-27T00:43:55.468Z,3.70
2023-01-27T00:45:58.083Z,2.50
2023-01-27T00:48:00.622Z,4.25
2023-01-27T00:50:03.372Z,3.70
2023-01-27T00:52:06.703Z,2.88
2023-01-27T00:54:09.402Z,3.38
2023-01-27T00:56:12.521Z,2.80
2023-01-27T00:58:15.400Z,3.22
2023-01-27T01:00:18.160Z,3.80
2023-01-27T01:02:20.818Z,4.07
2023-01-27T01:04:23.406Z,3.33
2023-01-27T01:06:27.338Z,3.30
2023-01-27T01:08:34.465Z,3.47
2023-01-27T01:10:40.071Z,3.17
2023-01-27T01:12:42.665Z,3.50
2023-01-27T01:14:45.306Z,3.30
2023-01-27T01:16:47.879Z,3.53
2023-01-27T01:18:50.827Z,3.53
2023-01-27T01:20:53.550Z,3.50
2023-01-27T01:22:57.265Z,4.25
2023-01-27T01:24:59.791Z,3.47
2023-01-27T01:27:02.424Z,2.95
2023-01-27T01:29:05.501Z,3.40
2023-01-27T01:31:12.068Z,3.78
2023-01-27T01:33:15.301Z,2.70
2023-01-27T01:35:17.845Z,3.58
2023-01-27T01:37:20.592Z,3.17
2023-01-27T01:39:23.211Z,3.92
2023-01-27T01:41:26.672Z,3.60
2023-01-27T01:43:29.402Z,3.30
2023-01-27T01:45:31.923Z,3.85
2023-01-27T01:47:34.648Z,3.90
2023-01-27T01:49:40.605Z,3.42
2023-01-27T01:51:51.489Z,3.63
2023-01-27T01:54:18.696Z,3.72
2023-01-27T01:56:28.961Z,3.92
2023-01-27T01:58:32.349Z,4.00
2023-01-27T02:00:35.412Z,3.55
2023-01-27T02:02:40.179Z,4.18
2023-01-27T02:04:52.096Z,4.25
2023-01-27T02:07:10.715Z,2.72
2023-01-27T02:09:13.320Z,3.63
2023-01-27T02:11:15.976Z,3.72
2023-01-27T02:13:18.620Z,3.40
2023-01-27T02:15:24.458Z,3.50
2023-01-27T02:17:28.488Z,3.97
2023-01-27T02:19:47.214Z,2.67
2023-01-27T02:21:52.999Z,3.07
2023-01-27T02:24:10.975Z,4.57
2023-01-27T02:26:19.469Z,3.93
2023-01-27T02:28:22.135Z,4.23
2023-01-27T02:30:24.931Z,3.05
2023-01-27T02:32:27.705Z,3.43
2023-01-27T02:34:35.026Z,3.78
2023-01-27T02:36:53.128Z,4.37
2023-01-27T02:38:57.648Z,3.80
2023-01-27T02:41:14.632Z,4.35
2023-01-27T02:43:17.222Z,3.67
2023-01-27T02:45:19.859Z,3.87
2023-01-27T02:47:22.842Z,3.20
2023-01-27T02:49:25.507Z,4.03
2023-01-27T02:51:28.149Z,4.53
2023-01-27T02:53:30.893Z,4.73
2023-01-27T02:55:33.747Z,3.47
2023-01-27T02:57:36.254Z,4.03
2023-01-27T02:59:38.824Z,3.63
2023-01-27T03:01:41.387Z,3.40
2023-01-27T03:03:51.504Z,2.77
2023-01-27T03:05:54.118Z,4.00
2023-01-27T03:07:56.727Z,3.97
2023-01-27T03:09:59.374Z,4.10
2023-01-27T03:12:20.316Z,3.77
2023-01-27T03:14:22.942Z,3.23
2023-01-27T03:16:44.221Z,4.25
2023-01-27T03:18:49.839Z,3.20
2023-01-27T03:20:52.448Z,3.45
2023-01-27T03:22:55.200Z,2.97
2023-01-27T03:24:57.844Z,4.00
2023-01-27T03:27:00.382Z,3.92
2023-01-27T03:29:21.723Z,4.70
2023-01-27T03:31:24.417Z,4.97
2023-01-27T03:33:27.130Z,4.67
2023-01-27T03:35:34.376Z,5.00
2023-01-27T03:37:55.450Z,4.97
2023-01-27T03:40:16.362Z,4.07
2023-01-27T03:42:37.436Z,3.83
2023-01-27T03:44:58.695Z,4.47
2023-01-27T03:47:01.568Z,3.63
2023-01-27T03:49:04.147Z,4.47
2023-01-27T03:51:08.365Z,4.03
2023-01-27T03:53:11.585Z,3.67
2023-01-27T03:55:14.535Z,4.67
2023-01-27T03:57:18.063Z,4.57
2023-01-27T03:59:20.693Z,4.47
2023-01-27T04:01:24.212Z,4.63
2023-01-27T04:03:49.222Z,4.50
2023-01-27T04:06:10.553Z,4.30
2023-01-27T04:08:13.207Z,4.77
2023-01-27T04:10:16.146Z,4.97
2023-01-27T04:12:18.844Z,4.80
2023-01-27T04:14:25.794Z,4.30
2023-01-27T04:16:29.167Z,5.13
2023-01-27T04:18:31.721Z,5.33
2023-01-27T04:20:34.295Z,4.63
2023-01-27T04:22:36.899Z,5.90
2023-01-27T04:24:39.833Z,4.93
2023-01-27T04:26:46.157Z,5.17
2023-01-27T04:28:49.861Z,4.40
2023-01-27T04:30:52.549Z,5.00
2023-01-27T04:32:55.320Z,5.70
2023-01-27T04:34:58.135Z,5.47
2023-01-27T04:37:00.780Z,5.63
2023-01-27T04:39:03.477Z,4.47
2023-01-27T04:41:06.210Z,4.83
2023-01-27T04:43:08.929Z,5.07
2023-01-27T04:45:12.073Z,4.70
2023-01-27T04:47:14.929Z,5.33
2023-01-27T04:49:18.393Z,4.77
2023-01-27T04:51:20.970Z,4.97
2023-01-27T04:53:23.648Z,4.67
2023-01-27T04:55:26.979Z,5.03
2023-01-27T04:57:29.731Z,6.13
2023-01-27T04:59:32.338Z,5.23
2023-01-27T05:01:35.111Z,5.77
2023-01-27T05:03:37.747Z,5.87
2023-01-27T05:05:40.407Z,5.50
2023-01-27T05:07:42.996Z,5.03
2023-01-27T05:09:45.667Z,6.20
2023-01-27T05:11:48.456Z,5.60
2023-01-27T05:13:51.126Z,5.60
2023-01-27T05:16:13.702Z,6.10
2023-01-27T05:18:16.302Z,4.93
2023-01-27T05:20:18.928Z,5.33
2023-01-27T05:22:21.531Z,5.70
2023-01-27T05:24:24.313Z,4.93
2023-01-27T05:26:28.394Z,5.97
2023-01-27T05:28:31.162Z,6.67
2023-01-27T05:30:33.762Z,5.53
2023-01-27T05:32:36.427Z,5.07
2023-01-27T05:34:39.132Z,5.73
2023-01-27T05:36:41.812Z,6.43
2023-01-27T05:38:44.480Z,6.07
2023-01-27T05:40:47.076Z,6.27
2023-01-27T05:42:52.269Z,5.63
2023-01-27T05:44:54.958Z,6.50
2023-01-27T05:46:57.551Z,6.00
2023-01-27T05:49:02.439Z,5.97
2023-01-27T05:51:06.150Z,5.47
2023-01-27T05:53:08.767Z,6.13
2023-01-27T05:55:11.977Z,5.63
2023-01-27T05:57:15.441Z,5.80
2023-01-27T05:59:18.050Z,5.83
2023-01-27T06:01:23.379Z,6.53
2023-01-27T06:03:26.030Z,6.75
2023-01-27T06:05:28.709Z,5.90
2023-01-27T06:07:31.244Z,5.73
2023-01-27T06:09:34.287Z,5.97
2023-01-27T06:11:36.901Z,5.88
2023-01-27T06:13:39.749Z,6.83
2023-01-27T06:15:44.899Z,5.87
2023-01-27T06:17:47.772Z,6.87
2023-01-27T06:19:50.383Z,5.93
2023-01-27T06:21:52.986Z,6.20
2023-01-27T06:23:56.206Z,5.60
2023-01-27T06:26:06.969Z,6.73
2023-01-27T06:28:12.567Z,5.83
2023-01-27T06:30:17.418Z,6.37
2023-01-27T06:32:20.178Z,8.03
2023-01-27T06:34:22.829Z,7.22
2023-01-27T06:36:25.409Z,6.55
2023-01-27T06:38:28.006Z,6.03
2023-01-27T06:40:32.382Z,7.35
2023-01-27T06:42:35.235Z,6.60
2023-01-27T06:44:37.818Z,7.37
2023-01-27T06:46:40.522Z,7.00
2023-01-27T06:48:43.041Z,6.35
2023-01-27T06:50:46.241Z,6.47
2023-01-27T06:52:48.860Z,7.32
2023-01-27T06:54:51.804Z,6.63
2023-01-27T06:56:54.349Z,7.37
2023-01-27T06:58:56.919Z,6.97
2023-01-27T07:00:59.578Z,7.90
2023-01-27T07:03:02.221Z,7.13
2023-01-27T07:05:05.100Z,7.53
2023-01-27T07:07:07.740Z,7.32
2023-01-27T07:09:11.334Z,12.80
2023-01-27T07:11:14.419Z,6.47
2023-01-27T07:13:18.675Z,6.63
2023-01-27T07:15:21.406Z,7.10
2023-01-27T07:17:24.333Z,6.25
2023-01-27T07:19:26.856Z,7.50
2023-01-27T07:21:29.501Z,7.22
2023-01-27T07:23:32.077Z,7.28
2023-01-27T07:25:35.475Z,7.40
2023-01-27T07:27:38.068Z,7.03
2023-01-27T07:29:40.825Z,8.93
2023-01-27T07:31:45.111Z,8.00
2023-01-27T07:33:47.916Z,7.37
2023-01-27T07:35:50.616Z,8.50
2023-01-27T07:37:53.237Z,8.60
2023-01-27T07:39:55.891Z,7.68
2023-01-27T07:41:59.042Z,7.22
2023-01-27T07:44:01.820Z,8.45
2023-01-27T07:46:04.502Z,7.47
2023-01-27T07:48:08.927Z,7.45
2023-01-27T07:50:12.990Z,8.38
2023-01-27T07:52:15.712Z,7.13
2023-01-27T07:54:18.609Z,7.60
2023-01-27T07:56:21.311Z,7.72
2023-01-27T07:58:23.904Z,7.50
2023-01-27T08:00:26.862Z,8.27
2023-01-27T08:02:29.429Z,7.63
2023-01-27T08:04:40.223Z,8.15
2023-01-27T08:06:53.740Z,8.02
2023-01-27T08:08:56.325Z,8.47
2023-01-27T08:11:03.013Z,7.13
2023-01-27T08:13:06.025Z,8.35
2023-01-27T08:15:09.699Z,8.30
2023-01-27T08:17:12.407Z,6.75
2023-01-27T08:19:15.028Z,8.80
2023-01-27T08:21:17.639Z,9.63
2023-01-27T08:23:22.263Z,8.02
2023-01-27T08:25:25.141Z,7.47
2023-01-27T08:27:27.920Z,7.30
2023-01-27T08:29:32.760Z,7.97
2023-01-27T08:31:35.486Z,7.63
2023-01-27T08:33:39.358Z,8.30
2023-01-27T08:35:44.792Z,8.07
2023-01-27T08:37:48.945Z,8.43
2023-01-27T08:39:51.617Z,8.15
2023-01-27T08:41:54.184Z,8.57
2023-01-27T08:43:56.788Z,8.90
2023-01-27T08:46:00.975Z,8.07
2023-01-27T08:48:06.170Z,9.57
2023-01-27T08:50:09.703Z,7.83
2023-01-27T08:52:12.250Z,8.03
2023-01-27T08:54:14.910Z,7.55
2023-01-27T08:56:17.482Z,7.78
2023-01-27T08:58:20.090Z,8.68
2023-01-27T09:00:22.891Z,7.47
2023-01-27T09:02:25.605Z,9.20
2023-01-27T09:04:30.328Z,8.30
2023-01-27T09:06:33.019Z,8.43
2023-01-27T09:08:35.646Z,8.13
2023-01-27T09:10:40.199Z,9.10
2023-01-27T09:12:44.283Z,8.32
2023-01-27T09:14:46.968Z,8.38
2023-01-27T09:16:49.611Z,9.15
2023-01-27T09:18:52.239Z,8.07
2023-01-27T09:20:55.209Z,7.45
2023-01-27T09:23:00.096Z,8.40
2023-01-27T09:25:03.903Z,7.43
2023-01-27T09:27:06.846Z,8.05
2023-01-27T09:29:09.798Z,8.75
2023-01-27T09:31:12.968Z,8.57
2023-01-27T09:33:16.325Z,9.70
2023-01-27T09:35:19.647Z,8.57
2023-01-27T09:37:22.521Z,7.65
2023-01-27T09:39:26.134Z,8.48
2023-01-27T09:41:47.243Z,9.20
2023-01-27T09:43:49.840Z,9.07
2023-01-27T09:46:07.701Z,8.00
2023-01-27T09:48:31.560Z,8.73
2023-01-27T09:51:01.752Z,8.32
2023-01-27T09:53:28.035Z,7.20
2023-01-27T09:55:45.889Z,7.90
2023-01-27T09:58:18.977Z,7.53
2023-01-27T10:00:37.957Z,8.88
2023-01-27T10:03:09.660Z,8.90
2023-01-27T10:05:41.539Z,8.13
2023-01-27T10:07:56.274Z,8.63
2023-01-27T10:10:01.464Z,9.45
2023-01-27T10:12:15.447Z,9.63
2023-01-27T10:14:20.642Z,9.43
2023-01-27T10:17:00.331Z,9.32
2023-01-27T10:19:21.341Z,8.73
2023-01-27T10:21:59.996Z,7.90
2023-01-27T10:24:29.892Z,8.52
2023-01-27T10:26:42.737Z,8.77
2023-01-27T10:28:50.918Z,9.07
2023-01-27T10:31:02.394Z,9.13
2023-01-27T10:33:18.654Z,8.32
2023-01-27T10:35:42.027Z,8.75
2023-01-27T10:37:48.557Z,9.27
2023-01-27T10:40:07.657Z,9.55
2023-01-27T10:42:31.101Z,8.40
2023-01-27T10:45:17.402Z,8.85
2023-01-27T10:47:19.960Z,8.63
2023-01-27T10:49:25.580Z,7.82
2023-01-27T10:51:42.923Z,8.70
2023-01-27T10:54:39.256Z,8.40
2023-01-27T10:56:47.144Z,8.18
2023-01-27T10:59:18.732Z,9.52
2023-01-27T11:01:31.042Z,8.13
2023-01-27T11:03:41.500Z,7.70
2023-01-27T11:05:51.099Z,7.80
2023-01-27T11:08:00.219Z,7.75
2023-01-27T11:10:08.472Z,8.98
2023-01-27T11:12:14.192Z,8.27
2023-01-27T11:14:25.217Z,9.02
2023-01-27T11:16:35.858Z,9.95
2023-01-27T11:18:39.223Z,9.18
2023-01-27T11:20:48.607Z,9.05
2023-01-27T11:22:55.859Z,8.98
2023-01-27T11:25:22.879Z,8.48
2023-01-27T11:27:49.844Z,7.93
2023-01-27T11:30:01.919Z,8.40
2023-01-27T11:32:15.454Z,8.50
2023-01-27T11:34:36.347Z,7.05
2023-01-27T11:36:40.223Z,7.65
2023-01-27T11:38:42.893Z,9.23
2023-01-27T11:40:47.615Z,7.85
2023-01-27T11:42:51.987Z,7.47
2023-01-27T11:44:57.081Z,9.05
2023-01-27T11:47:00.179Z,7.80
2023-01-27T11:49:03.479Z,7.93
2023-01-27T11:51:09.794Z,7.88
2023-01-27T11:53:39.809Z,7.75
2023-01-27T11:55:49.382Z,7.43
2023-01-27T11:58:09.581Z,7.20
2023-01-27T12:00:24.427Z,7.15
2023-01-27T12:02:44.483Z,8.97
2023-01-27T12:05:06.895Z,7.67
2023-01-27T12:09:32.168Z,7.77
2023-01-27T12:11:34.947Z,8.15
2023-01-27T12:13:37.604Z,7.23
2023-01-27T12:15:49.877Z,7.60
2023-01-27T12:18:09.438Z,8.32
2023-01-27T12:20:33.740Z,7.18
2023-01-27T12:22:44.797Z,7.27
2023-01-27T12:24:53.097Z,6.72
2023-01-27T12:26:57.010Z,8.10
2023-01-27T12:29:06.071Z,6.70
2023-01-27T12:31:18.454Z,8.73
2023-01-27T12:33:27.952Z,6.73
2023-01-27T12:35:35.516Z,7.63
2023-01-27T12:37:39.143Z,7.53
2023-01-27T12:39:46.820Z,8.00
2023-01-27T12:41:51.004Z,7.00
2023-01-27T12:44:08.376Z,7.83
2023-01-27T12:46:11.108Z,7.20
2023-01-27T12:48:21.349Z,8.87
2023-01-27T12:50:31.218Z,7.53
2023-01-27T12:52:34.203Z,7.30
2023-01-27T12:54:37.651Z,7.17
2023-01-27T12:56:40.690Z,5.90
2023-01-27T12:58:57.623Z,6.70
2023-01-27T13:01:04.488Z,7.60
2023-01-27T13:03:12.361Z,6.30
2023-01-27T13:05:18.329Z,6.20
2023-01-27T13:07:28.532Z,6.00
2023-01-27T13:09:37.279Z,6.77
2023-01-27T13:11:41.159Z,7.50
2023-01-27T13:13:52.041Z,6.97
2023-01-27T13:16:15.167Z,6.97
2023-01-27T13:18:24.071Z,6.67
2023-01-27T13:20:32.147Z,7.20
2023-01-27T13:22:44.554Z,6.77
2023-01-27T13:24:51.793Z,6.90
2023-01-27T13:26:55.879Z,6.33
2023-01-27T13:29:14.819Z,6.60
2023-01-27T13:31:43.556Z,6.43
2023-01-27T13:33:59.838Z,6.90
2023-01-27T13:36:13.447Z,7.83
2023-01-27T13:38:22.135Z,7.43
2023-01-27T13:40:46.114Z,8.23
2023-01-27T13:43:13.073Z,6.20
2023-01-27T13:45:22.878Z,7.93
2023-01-27T13:47:34.886Z,6.60
2023-01-27T13:49:45.004Z,8.43
2023-01-27T13:51:47.829Z,7.40
2023-01-27T13:53:59.813Z,7.07
2023-01-27T13:56:20.173Z,6.30
2023-01-27T13:58:50.799Z,6.60
2023-01-27T14:01:18.944Z,7.33
2023-01-27T14:03:54.592Z,6.43
2023-01-27T14:06:20.961Z,7.10
2023-01-27T14:08:38.796Z,7.70
2023-01-27T14:10:57.063Z,7.07
2023-01-27T14:13:14.905Z,7.67
2023-01-27T14:15:27.539Z,5.77
2023-01-27T14:17:47.267Z,6.30
2023-01-27T14:20:18.179Z,6.10
2023-01-27T14:22:30.802Z,6.50
2023-01-27T14:24:53.254Z,6.80
2023-01-27T14:27:10.128Z,6.63
2023-01-27T14:29:23.849Z,8.10
2023-01-27T14:31:53.987Z,7.13
2023-01-27T14:34:42.704Z,6.27
2023-01-27T14:36:58.529Z,6.80
2023-01-27T14:39:34.096Z,8.60
2023-01-27T14:41:39.457Z,8.27
2023-01-27T14:43:54.084Z,6.83
2023-01-27T14:46:34.492Z,7.77
2023-01-27T14:49:08.891Z,7.93
2023-01-27T14:51:40.653Z,7.50
2023-01-27T14:54:09.881Z,7.70
2023-01-27T14:56:27.414Z,6.87
2023-01-27T14:59:04.904Z,7.30
2023-01-27T15:01:18.646Z,6.73
2023-01-27T15:03:46.503Z,7.67
2023-01-27T15:06:10.785Z,8.03
2023-01-27T15:08:29.586Z,8.13
2023-01-27T15:10:34.044Z,9.10
2023-01-27T15:13:21.002Z,8.30
2023-01-27T15:15:34.633Z,7.50
2023-01-27T15:18:01.764Z,7.40
2023-01-27T15:20:25.787Z,7.77
2023-01-27T15:22:44.451Z,6.77
2023-01-27T15:25:18.331Z,7.03
2023-01-27T15:27:22.786Z,7.47
2023-01-27T15:29:31.000Z,6.33
2023-01-27T15:31:33.828Z,9.13
2023-01-27T15:33:55.319Z,7.17
2023-01-27T15:36:33.106Z,7.20
2023-01-27T15:38:35.953Z,7.70
2023-01-27T15:41:08.300Z,8.33
2023-01-27T15:43:15.773Z,6.90
2023-01-27T15:45:36.578Z,8.87
2023-01-27T15:47:40.812Z,7.43
2023-01-27T15:50:11.478Z,8.27
2023-01-27T15:52:34.890Z,7.77
2023-01-27T15:54:41.249Z,8.40
2023-01-27T15:56:56.573Z,9.17
2023-01-27T15:59:09.868Z,7.80
2023-01-27T16:01:37.107Z,7.97
2023-01-27T16:03:48.364Z,8.53
2023-01-27T16:05:54.264Z,8.90
2023-01-27T16:08:02.890Z,8.70
2023-01-27T16:10:13.791Z,8.50
2023-01-27T16:12:28.580Z,8.83
2023-01-27T16:14:40.469Z,8.70
2023-01-27T16:16:51.711Z,8.52
2023-01-27T16:19:06.155Z,9.23
2023-01-27T16:21:41.038Z,8.50
2023-01-27T16:23:56.617Z,8.60
2023-01-27T16:26:08.660Z,9.17
2023-01-27T16:28:19.418Z,9.95
2023-01-27T16:30:26.602Z,9.40
2023-01-27T16:32:38.008Z,8.97
2023-01-27T16:34:47.597Z,9.65
2023-01-27T16:37:24.054Z,10.10
2023-01-27T16:39:47.351Z,8.60
2023-01-27T16:41:59.511Z,10.50
2023-01-27T16:48:32.659Z,9.03
2023-01-27T16:50:38.539Z,8.60
2023-01-27T16:52:42.831Z,8.73
2023-01-27T16:54:50.118Z,9.37
2023-01-27T16:56:54.051Z,9.07
2023-01-27T16:59:23.442Z,9.70
2023-01-27T17:01:34.758Z,8.63
2023-01-27T17:03:39.866Z,7.60
2023-01-27T17:05:45.885Z,9.77
2023-01-27T17:08:25.428Z,8.70
2023-01-27T17:10:34.824Z,8.83
2023-01-27T17:12:47.130Z,8.63
2023-01-27T17:14:53.975Z,8.93
2023-01-27T17:17:02.738Z,9.23
2023-01-27T17:19:32.789Z,8.83
2023-01-27T17:21:41.557Z,9.13
2023-01-27T17:23:44.245Z,9.57
2023-01-27T17:25:47.050Z,8.73
2023-01-27T17:27:50.631Z,9.27
2023-01-27T17:30:05.041Z,8.77
2023-01-27T17:32:21.670Z,8.37
2023-01-27T17:34:24.682Z,6.40
2023-01-27T17:36:27.501Z,8.53
2023-01-27T17:38:51.266Z,6.67
2023-01-27T17:40:55.233Z,8.80
2023-01-27T17:42:57.827Z,7.63
2023-01-27T17:45:23.640Z,7.37
2023-01-27T17:47:26.280Z,8.17
2023-01-27T17:49:30.746Z,7.47
2023-01-27T17:51:54.580Z,7.50
2023-01-27T17:53:58.820Z,7.20
2023-01-27T17:56:12.975Z,8.43
2023-01-27T17:58:24.657Z,8.53
2023-01-27T18:00:38.765Z,9.15
2023-01-27T18:03:10.189Z,7.40
2023-01-27T18:05:25.792Z,7.38
2023-01-27T18:07:28.530Z,7.63
2023-01-27T18:09:31.798Z,7.63
2023-01-27T18:11:36.845Z,8.00
2023-01-27T18:13:41.381Z,7.90
2023-01-27T18:16:12.793Z,7.77
2023-01-27T18:18:30.103Z,8.03
2023-01-27T18:20:36.307Z,6.53
2023-01-27T18:22:45.376Z,7.83
2023-01-27T18:24:55.491Z,7.80
2023-01-27T18:26:58.185Z,8.13
2023-01-27T18:29:06.974Z,7.10
2023-01-27T18:31:21.826Z,6.60
2023-01-27T18:33:25.100Z,7.57
2023-01-27T18:35:35.818Z,7.83
2023-01-27T18:37:39.714Z,7.53
2023-01-27T18:39:43.475Z,7.67
2023-01-27T18:41:48.114Z,7.70
2023-01-27T18:43:51.091Z,7.10
2023-01-27T18:45:53.661Z,7.53
2023-01-27T18:47:57.334Z,7.00
2023-01-27T18:50:17.104Z,6.80
2023-01-27T18:52:19.975Z,7.60
2023-01-27T18:54:22.611Z,8.37
2023-01-27T18:56:25.218Z,7.93
2023-01-27T18:58:28.884Z,8.50
2023-01-27T19:00:37.943Z,7.80
2023-01-27T19:02:48.539Z,7.77
2023-01-27T19:04:51.269Z,8.67
2023-01-27T19:06:53.940Z,6.83
2023-01-27T19:08:56.676Z,9.30
2023-01-27T19:10:59.475Z,6.57
2023-01-27T19:13:03.952Z,9.00
2023-01-27T19:15:07.200Z,8.33
2023-01-27T19:17:29.739Z,7.50
2023-01-27T19:19:32.361Z,7.27
2023-01-27T19:21:34.939Z,6.77
2023-01-27T19:23:37.697Z,8.63
2023-01-27T19:25:41.066Z,7.27
2023-01-27T19:27:50.139Z,8.60
2023-01-27T19:29:52.790Z,7.07
2023-01-27T19:31:55.548Z,6.57
2023-01-27T19:33:58.245Z,7.87
2023-01-27T19:36:24.073Z,7.93
2023-01-27T19:38:28.969Z,6.87
2023-01-27T19:40:32.001Z,8.33
2023-01-27T19:42:34.562Z,7.40
2023-01-27T19:44:37.191Z,7.90
2023-01-27T19:46:41.333Z,7.17
2023-01-27T19:48:44.050Z,7.40
2023-01-27T19:50:47.392Z,7.33
2023-01-27T19:52:50.646Z,7.17
2023-01-27T19:54:53.303Z,8.17
2023-01-27T19:56:55.975Z,8.90
2023-01-27T19:58:58.793Z,8.20
2023-01-27T20:01:01.463Z,8.50
2023-01-27T20:03:04.495Z,8.75
2023-01-27T20:05:07.807Z,8.27
2023-01-27T20:07:12.784Z,7.73
2023-01-27T20:09:15.496Z,8.10
2023-01-27T20:11:33.152Z,8.48
2023-01-27T20:13:35.779Z,7.97
2023-01-27T20:15:40.173Z,7.57
2023-01-27T20:17:42.901Z,8.65
2023-01-27T20:19:47.938Z,7.97
2023-01-27T20:21:51.209Z,6.88
2023-01-27T20:23:54.224Z,7.15
2023-01-27T20:25:57.301Z,8.07
2023-01-27T20:28:01.444Z,9.88
2023-01-27T20:30:05.337Z,8.00
2023-01-27T20:32:09.668Z,7.53
2023-01-27T20:34:12.329Z,7.47
2023-01-27T20:36:15.167Z,7.70
2023-01-27T20:38:17.807Z,8.10
2023-01-27T20:40:23.996Z,7.80
2023-01-27T20:42:26.560Z,7.13
2023-01-27T20:44:29.198Z,7.53
2023-01-27T20:46:31.968Z,8.10
2023-01-27T20:48:34.849Z,8.07
2023-01-27T20:50:37.421Z,9.30
2023-01-27T20:52:40.364Z,9.37
2023-01-27T20:54:43.013Z,8.20
2023-01-27T20:56:45.577Z,8.82
2023-01-27T20:58:49.231Z,9.20
2023-01-27T21:00:51.954Z,8.90
2023-01-27T21:02:54.562Z,8.00
2023-01-27T21:04:57.498Z,7.75
2023-01-27T21:07:00.064Z,8.50
2023-01-27T21:09:02.733Z,7.77
2023-01-27T21:11:10.871Z,9.63
2023-01-27T21:13:13.455Z,10.50
2023-01-27T21:15:16.536Z,7.43
2023-01-27T21:17:19.302Z,7.95
2023-01-27T21:19:21.878Z,9.20
2023-01-27T21:21:27.633Z,7.82
2023-01-27T21:23:32.727Z,7.78
2023-01-27T21:25:37.276Z,8.00
2023-01-27T21:27:41.885Z,8.27
2023-01-27T21:29:44.503Z,8.38
2023-01-27T21:31:48.545Z,8.27
2023-01-27T21:33:51.325Z,9.95
2023-01-27T21:35:56.705Z,8.45
2023-01-27T21:37:59.357Z,8.20
2023-01-27T21:40:01.982Z,9.10
2023-01-27T21:42:05.918Z,8.52
2023-01-27T21:44:39.730Z,8.77
2023-01-27T21:46:42.398Z,10.37
2023-01-27T21:48:44.951Z,8.53
2023-01-27T21:50:51.955Z,8.15
2023-01-27T21:52:54.612Z,7.95
2023-01-27T21:54:57.221Z,8.30
2023-01-27T21:56:59.804Z,8.25
2023-01-27T21:59:02.426Z,7.97
2023-01-27T22:01:09.593Z,7.10
2023-01-27T22:03:12.604Z,9.10
2023-01-27T22:05:15.761Z,8.02
2023-01-27T22:07:19.676Z,7.78
2023-01-27T22:09:22.247Z,8.00
2023-01-27T22:11:24.870Z,8.85
2023-01-27T22:13:27.412Z,9.05
2023-01-27T22:15:31.038Z,9.90
2023-01-27T22:17:35.083Z,9.23
2023-01-27T22:19:39.279Z,8.43
2023-01-27T22:21:41.892Z,9.45
2023-01-27T22:23:45.289Z,7.13
2023-01-27T22:25:52.487Z,7.70
2023-01-27T22:27:55.725Z,8.13
2023-01-27T22:29:59.100Z,9.10
2023-01-27T22:32:01.931Z,8.43
2023-01-27T22:34:04.578Z,9.40
2023-01-27T22:36:07.591Z,9.02
2023-01-27T22:38:10.736Z,9.73
2023-01-27T22:40:14.002Z,9.35
2023-01-27T22:42:16.670Z,10.15
2023-01-27T22:44:20.380Z,9.32
2023-01-27T22:46:24.004Z,8.73
2023-01-27T22:48:26.676Z,8.82
2023-01-27T22:50:29.465Z,8.48
2023-01-27T22:52:35.295Z,8.25
2023-01-27T22:54:37.975Z,8.30
2023-01-27T22:56:40.621Z,9.07
2023-01-27T22:58:43.202Z,9.73
2023-01-27T23:00:45.749Z,9.32
2023-01-27T23:02:48.356Z,9.13
2023-01-27T23:04:51.352Z,8.68
2023-01-27T23:06:53.965Z,8.70
2023-01-27T23:08:56.493Z,7.82
2023-01-27T23:11:06.641Z,7.85
2023-01-27T23:13:09.273Z,7.93
2023-01-27T23:15:12.618Z,8.13
2023-01-27T23:17:15.552Z,8.75
2023-01-27T23:19:18.161Z,8.88
2023-01-27T23:21:20.816Z,8.15
2023-01-27T23:23:23.461Z,7.90
2023-01-27T23:25:26.037Z,9.25
2023-01-27T23:27:28.772Z,9.20
2023-01-27T23:29:31.560Z,8.57
2023-01-27T23:31:34.199Z,9.20
2023-01-27T23:33:38.700Z,8.85
2023-01-27T23:35:41.614Z,8.90
2023-01-27T23:37:44.216Z,7.80
2023-01-27T23:39:49.743Z,9.35
2023-01-27T23:41:52.394Z,9.02
2023-01-27T23:43:58.962Z,7.00
2023-01-27T23:46:01.669Z,8.25
2023-01-27T23:48:04.627Z,9.10
2023-01-27T23:50:07.510Z,8.18
2023-01-27T23:52:10.227Z,7.95
2023-01-27T23:54:13.728Z,9.57
2023-01-27T23:56:19.140Z,8.60
2023-01-27T23:58:21.775Z,9.02
